Time;durP1;ratioP1;P1;durP2;ratioP2;P2;SDS_P1;SDS_P2;PMS_P1;PMS_P2;Temp;Humidity;BMP_temperature;BMP_pressure;BME280_temperature;BME280_humidity;BME280_pressure;Samples;Min_cycle;Max_cycle;Signal;HPM_P1;HPM_P2
2022/08/18 00:00:15;;;;;;;6.53;4.15;;;;;;;;;;5031601;28;20073;-67
2022/08/18 00:02:45;;;;;;;6.53;3.97;;;;;;;;;;5031934;28;20437;-68
2022/08/18 00:05:26;;;;;;;5.68;3.65;;;;;;;;;;5018208;28;20076;-68
2022/08/18 00:07:56;;;;;;;7.55;4.38;;;;;;;;;;5017673;28;20493;-68
2022/08/18 00:10:22;;;;;;;7.90;4.37;;;;;;;;;;5029998;28;20102;-67
2022/08/18 00:12:49;;;;;;;5.00;4.00;;;;;;;;;;5031357;28;20781;-67
2022/08/18 00:15:16;;;;;;;8.73;4.88;;;;;;;;;;5030160;28;20049;-67
2022/08/18 00:17:43;;;;;;;7.53;4.78;;;;;;;;;;5031555;28;20049;-67
2022/08/18 00:20:11;;;;;;;7.93;5.30;;;;;;;;;;5031321;28;20053;-68
2022/08/18 00:22:41;;;;;;;7.70;5.50;;;;;;;;;;5031687;28;20042;-68
2022/08/18 00:25:08;;;;;;;8.27;5.80;;;;;;;;;;5031346;28;20632;-68
2022/08/18 00:27:36;;;;;;;7.65;5.68;;;;;;;;;;5031810;28;20096;-68
2022/08/18 00:30:04;;;;;;;7.25;5.60;;;;;;;;;;5035618;28;20084;-68
2022/08/18 00:32:32;;;;;;;9.43;6.43;;;;;;;;;;5034031;28;20076;-68
2022/08/18 00:35:05;;;;;;;9.68;6.40;;;;;;;;;;5035578;28;20112;-68
2022/08/18 00:37:32;;;;;;;8.32;5.80;;;;;;;;;;5035363;28;20069;-68
2022/08/18 00:39:59;;;;;;;10.50;5.97;;;;;;;;;;5035575;28;20073;-68
2022/08/18 00:42:27;;;;;;;6.53;5.57;;;;;;;;;;5035349;28;20274;-68
2022/08/18 00:44:57;;;;;;;8.68;5.68;;;;;;;;;;5035665;28;20103;-68
2022/08/18 00:47:27;;;;;;;7.50;6.10;;;;;;;;;;5035568;28;20077;-68
2022/08/18 00:50:13;;;;;;;9.50;5.70;;;;;;;;;;5035393;28;20471;-68
2022/08/18 00:52:41;;;;;;;5.97;5.35;;;;;;;;;;5035181;28;20049;-68
2022/08/18 00:55:08;;;;;;;7.57;5.65;;;;;;;;;;5034000;28;20053;-68
2022/08/18 00:57:34;;;;;;;7.10;5.47;;;;;;;;;;5034774;28;20493;-68
2022/08/18 01:00:10;;;;;;;8.60;5.60;;;;;;;;;;5035093;28;20050;-68
2022/08/18 01:02:40;;;;;;;6.65;5.22;;;;;;;;;;5034945;28;20049;-67
2022/08/18 01:05:17;;;;;;;7.03;5.80;;;;;;;;;;5033655;28;20053;-67
2022/08/18 01:07:44;;;;;;;;;;;;;;;;;;5035154;28;20057;-68
2022/08/18 01:10:15;;;;;;;7.13;5.60;;;;;;;;;;5034353;28;19947;-68
2022/08/18 01:12:42;;;;;;;6.55;5.28;;;;;;;;;;5034967;28;20053;-67
2022/08/18 01:15:13;;;;;;;6.88;5.47;;;;;;;;;;5034560;28;20064;-67
2022/08/18 01:23:38;;;;;;;7.43;4.80;;;;;;;;;;5034490;28;20049;-67
2022/08/18 01:26:05;;;;;;;8.68;4.95;;;;;;;;;;5034334;28;20081;-67
2022/08/18 01:28:33;;;;;;;8.02;4.95;;;;;;;;;;5034253;28;20054;-67
2022/08/18 01:31:00;;;;;;;8.82;5.05;;;;;;;;;;5034249;28;20088;-67
2022/08/18 01:33:31;;;;;;;6.75;4.55;;;;;;;;;;5034243;28;20100;-67
2022/08/18 01:36:00;;;;;;;7.00;4.63;;;;;;;;;;5034222;28;20547;-67
2022/08/18 01:38:26;;;;;;;7.97;5.00;;;;;;;;;;5033934;28;20079;-67
2022/08/18 01:40:53;;;;;;;7.25;4.75;;;;;;;;;;5034297;28;20471;-67
2022/08/18 01:43:39;;;;;;;5.57;4.90;;;;;;;;;;5032865;28;20524;-67
2022/08/18 01:46:06;;;;;;;7.20;4.82;;;;;;;;;;5034018;28;20565;-67
2022/08/18 01:48:33;;;;;;;5.85;5.22;;;;;;;;;;5033945;28;20161;-67
2022/08/18 01:51:01;;;;;;;7.13;4.80;;;;;;;;;;5034181;28;20093;-67
2022/08/18 01:53:28;;;;;;;9.10;5.30;;;;;;;;;;5034062;28;20053;-67
2022/08/18 01:55:54;;;;;;;8.95;4.90;;;;;;;;;;5033697;28;20509;-67
2022/08/18 01:58:26;;;;;;;6.30;5.20;;;;;;;;;;5034026;28;20104;-67
2022/08/18 02:01:00;;;;;;;8.52;5.78;;;;;;;;;;5032905;28;20049;-67
2022/08/18 02:03:33;;;;;;;9.10;5.50;;;;;;;;;;5033959;28;20452;-67
2022/08/18 02:06:01;;;;;;;9.60;5.22;;;;;;;;;;5033642;28;20505;-67
2022/08/18 02:08:28;;;;;;;8.65;5.43;;;;;;;;;;5032494;28;20092;-67
2022/08/18 02:10:57;;;;;;;10.65;6.30;;;;;;;;;;5033890;28;20049;-67
2022/08/18 02:13:24;;;;;;;8.27;6.72;;;;;;;;;;5033353;28;20084;-67
2022/08/18 02:15:50;;;;;;;;;;;;;;;;;;5033837;28;20103;-67
2022/08/18 02:18:19;;;;;;;8.38;5.35;;;;;;;;;;5033582;28;19925;-67
2022/08/18 02:21:07;;;;;;;8.38;6.07;;;;;;;;;;5033517;28;20516;-68
2022/08/18 02:23:36;;;;;;;9.23;5.90;;;;;;;;;;5033814;28;20053;-67
2022/08/18 02:26:03;;;;;;;7.90;5.63;;;;;;;;;;5033275;28;20555;-67
2022/08/18 02:28:30;;;;;;;7.32;5.38;;;;;;;;;;5033464;28;20481;-67
2022/08/18 02:30:56;;;;;;;6.35;5.03;;;;;;;;;;5033288;28;20099;-67
2022/08/18 02:33:23;;;;;;;10.40;6.15;;;;;;;;;;5033158;28;20049;-67
2022/08/18 02:35:53;;;;;;;7.72;6.20;;;;;;;;;;5033395;28;20120;-68
2022/08/18 02:38:19;;;;;;;9.85;6.22;;;;;;;;;;5033299;28;20472;-67
2022/08/18 02:40:46;;;;;;;9.37;6.07;;;;;;;;;;5033080;28;20064;-67
2022/08/18 02:43:12;;;;;;;7.55;5.93;;;;;;;;;;5033296;28;20283;-68
2022/08/18 02:45:39;;;;;;;9.93;6.50;;;;;;;;;;5033069;28;20170;-67
2022/08/18 02:48:06;;;;;;;7.63;6.53;;;;;;;;;;5033089;28;20492;-68
2022/08/18 02:50:33;;;;;;;9.25;6.18;;;;;;;;;;5032176;28;20045;-68
2022/08/18 02:53:00;;;;;;;9.30;6.27;;;;;;;;;;5033055;28;20127;-68
2022/08/18 02:55:28;;;;;;;9.93;6.53;;;;;;;;;;5031370;28;20639;-67
2022/08/18 02:57:54;;;;;;;9.27;6.60;;;;;;;;;;5032582;28;20046;-67
2022/08/18 03:00:21;;;;;;;9.07;6.20;;;;;;;;;;5032578;28;20050;-67
2022/08/18 03:02:48;;;;;;;10.43;5.97;;;;;;;;;;5032807;28;20076;-67
2022/08/18 03:05:15;;;;;;;8.95;6.07;;;;;;;;;;5031592;28;20088;-67
2022/08/18 03:07:42;;;;;;;8.35;5.30;;;;;;;;;;5032614;28;20436;-67
2022/08/18 03:10:09;;;;;;;8.65;5.18;;;;;;;;;;5032441;28;20095;-67
2022/08/18 03:12:55;;;;;;;10.10;5.78;;;;;;;;;;5032541;28;20492;-67
2022/08/18 03:15:22;;;;;;;9.45;5.47;;;;;;;;;;5032111;28;20096;-67
2022/08/18 03:17:51;;;;;;;10.73;6.15;;;;;;;;;;5032520;28;20045;-67
2022/08/18 03:20:18;;;;;;;7.50;5.43;;;;;;;;;;5032411;28;20059;-67
2022/08/18 03:22:56;;;;;;;9.80;5.95;;;;;;;;;;5032473;28;20045;-67
2022/08/18 03:25:23;;;;;;;10.57;6.60;;;;;;;;;;5032113;28;20049;-67
2022/08/18 03:27:50;;;;;;;8.60;5.35;;;;;;;;;;5032139;28;20462;-67
2022/08/18 03:30:16;;;;;;;9.40;6.53;;;;;;;;;;5032275;28;20046;-67
2022/08/18 03:32:43;;;;;;;7.82;5.88;;;;;;;;;;5032006;28;20493;-67
2022/08/18 03:35:13;;;;;;;10.52;5.95;;;;;;;;;;5030893;28;20482;-66
2022/08/18 03:37:39;;;;;;;9.32;6.25;;;;;;;;;;5031934;28;20065;-67
2022/08/18 03:40:06;;;;;;;11.90;7.65;;;;;;;;;;5031848;28;20548;-67
2022/08/18 03:42:33;;;;;;;13.50;8.07;;;;;;;;;;5032184;28;20482;-67
2022/08/18 03:44:59;;;;;;;16.35;8.73;;;;;;;;;;5031763;28;20513;-67
2022/08/18 03:47:38;;;;;;;11.55;7.82;;;;;;;;;;5031864;28;20565;-67
2022/08/18 03:50:05;;;;;;;;;;;;;;;;;;5032097;28;20497;-67
2022/08/18 03:52:31;;;;;;;9.97;6.47;;;;;;;;;;5031717;28;19921;-67
2022/08/18 03:54:58;;;;;;;10.60;6.38;;;;;;;;;;5031985;28;20054;-67
2022/08/18 03:57:31;;;;;;;9.90;6.45;;;;;;;;;;5031863;28;20045;-67
2022/08/18 04:00:04;;;;;;;7.90;6.00;;;;;;;;;;5031968;28;20049;-67
2022/08/18 04:02:31;;;;;;;11.63;6.70;;;;;;;;;;5031470;28;20103;-67
2022/08/18 04:04:57;;;;;;;10.73;6.20;;;;;;;;;;5031738;28;20060;-67
2022/08/18 04:07:24;;;;;;;8.63;5.70;;;;;;;;;;5031578;28;20081;-67
2022/08/18 04:09:50;;;;;;;9.18;5.80;;;;;;;;;;5031669;28;20132;-67
2022/08/18 04:12:17;;;;;;;9.45;6.00;;;;;;;;;;5031539;28;20516;-67
2022/08/18 04:14:46;;;;;;;8.40;6.50;;;;;;;;;;5030279;28;20466;-67
2022/08/18 04:17:13;;;;;;;8.93;6.43;;;;;;;;;;5031587;28;20053;-67
2022/08/18 04:19:40;;;;;;;9.55;6.13;;;;;;;;;;5031425;28;20482;-67
2022/08/18 04:22:07;;;;;;;9.52;6.38;;;;;;;;;;5031797;28;20452;-67
2022/08/18 04:24:33;;;;;;;10.05;6.70;;;;;;;;;;5030364;28;20096;-67
2022/08/18 04:27:01;;;;;;;10.02;6.22;;;;;;;;;;5031779;28;20057;-67
2022/08/18 04:29:28;;;;;;;11.70;6.13;;;;;;;;;;5031451;28;20054;-67
2022/08/18 04:31:55;;;;;;;10.77;6.40;;;;;;;;;;5031597;28;20460;-67
2022/08/18 04:34:21;;;;;;;9.98;6.50;;;;;;;;;;5031225;28;20493;-67
2022/08/18 04:36:52;;;;;;;11.82;6.95;;;;;;;;;;5031610;28;20038;-67
2022/08/18 04:39:20;;;;;;;10.25;6.57;;;;;;;;;;5030067;28;20081;-67
2022/08/18 04:41:47;;;;;;;8.05;6.40;;;;;;;;;;5031355;28;20045;-67
2022/08/18 04:44:16;;;;;;;11.83;7.00;;;;;;;;;;5031552;28;20057;-67
2022/08/18 04:46:50;;;;;;;12.35;7.20;;;;;;;;;;5031131;28;20057;-68
2022/08/18 04:49:18;;;;;;;10.68;7.35;;;;;;;;;;5031236;28;20054;-68
2022/08/18 04:53:43;;;;;;;;;;;;;;;;;;5031959;28;20458;-67
2022/08/18 04:54:51;;;;;;;11.30;6.35;;;;;;;;;;5031215;28;20304;-68
2022/08/18 04:57:19;;;;;;;11.98;6.28;;;;;;;;;;5031027;28;20469;-67
2022/08/18 04:59:46;;;;;;;10.65;6.85;;;;;;;;;;5031040;28;20050;-67
2022/08/18 05:02:14;;;;;;;9.75;6.43;;;;;;;;;;5031049;28;20555;-67
2022/08/18 05:04:41;;;;;;;14.13;7.75;;;;;;;;;;5031048;28;20387;-67
2022/08/18 05:07:09;;;;;;;11.93;7.70;;;;;;;;;;5029847;28;20085;-67
2022/08/18 05:09:37;;;;;;;15.10;8.02;;;;;;;;;;5030805;28;20057;-67
2022/08/18 05:12:07;;;;;;;16.70;8.80;;;;;;;;;;5031059;28;20049;-67
2022/08/18 05:14:35;;;;;;;18.65;9.02;;;;;;;;;;5032523;28;20088;-68
2022/08/18 05:17:02;;;;;;;17.42;9.32;;;;;;;;;;5034681;28;20080;-68
2022/08/18 05:19:29;;;;;;;;;;;;;;;;;;5034891;28;20072;-67
2022/08/18 05:21:57;;;;;;;8.48;6.40;;;;;;;;;;5034562;28;20265;-67
2022/08/18 05:24:27;;;;;;;14.95;7.90;;;;;;;;;;5034417;28;20266;-67
2022/08/18 05:27:03;;;;;;;13.27;8.52;;;;;;;;;;5034769;28;20063;-67
2022/08/18 05:29:35;;;;;;;14.27;9.10;;;;;;;;;;5034591;28;20050;-67
2022/08/18 05:32:12;;;;;;;16.10;9.10;;;;;;;;;;5034577;28;20049;-67
2022/08/18 05:34:59;;;;;;;;;;;;;;;;;;5034634;28;20132;-67
2022/08/18 05:37:25;;;;;;;;;;;;;;;;;;5034836;28;20154;-67
2022/08/18 05:39:56;;;;;;;15.20;10.77;;;;;;;;;;5034412;28;19925;-67
2022/08/18 05:42:24;;;;;;;16.48;9.98;;;;;;;;;;5034426;28;20333;-67
2022/08/18 05:44:53;;;;;;;14.45;9.75;;;;;;;;;;5032735;28;20072;-67
2022/08/18 05:47:25;;;;;;;15.18;9.85;;;;;;;;;;5033895;28;20069;-67
2022/08/18 05:49:52;;;;;;;14.18;9.75;;;;;;;;;;5034017;28;20567;-67
2022/08/18 05:52:41;;;;;;;15.55;8.73;;;;;;;;;;5033675;28;20049;-67
2022/08/18 05:58:03;;;;;;;14.55;9.30;;;;;;;;;;5033391;28;20429;-67
2022/08/18 06:00:30;;;;;;;15.90;9.25;;;;;;;;;;5033600;28;20393;-67
2022/08/18 06:03:03;;;;;;;16.05;9.40;;;;;;;;;;5032621;28;20095;-67
2022/08/18 06:05:31;;;;;;;17.83;9.48;;;;;;;;;;5033535;28;20188;-67
2022/08/18 06:07:59;;;;;;;13.35;9.52;;;;;;;;;;5029831;28;20555;-66
2022/08/18 06:10:26;;;;;;;15.18;9.60;;;;;;;;;;5033381;28;20049;-67
2022/08/18 06:13:00;;;;;;;15.45;9.55;;;;;;;;;;5033198;28;20060;-66
2022/08/18 06:15:41;;;;;;;14.57;9.13;;;;;;;;;;5033487;28;20191;-67
2022/08/18 06:18:28;;;;;;;15.43;9.82;;;;;;;;;;5033747;28;20068;-67
2022/08/18 06:21:10;;;;;;;16.60;9.63;;;;;;;;;;5033658;28;20041;-69
2022/08/18 06:23:37;;;;;;;22.95;10.32;;;;;;;;;;5030674;28;20151;-68
2022/08/18 06:26:22;;;;;;;17.38;9.52;;;;;;;;;;5032153;28;20104;-68
2022/08/18 06:29:08;;;;;;;17.08;10.48;;;;;;;;;;5033026;28;20103;-69
2022/08/18 06:31:44;;;;;;;16.75;9.30;;;;;;;;;;5021489;28;20050;-69
2022/08/18 06:34:22;;;;;;;15.15;9.80;;;;;;;;;;5033231;28;20460;-68
2022/08/18 06:36:54;;;;;;;14.32;9.27;;;;;;;;;;5033362;28;20119;-68
2022/08/18 06:39:25;;;;;;;14.00;9.05;;;;;;;;;;5032808;28;20049;-69
2022/08/18 06:41:52;;;;;;;14.10;9.10;;;;;;;;;;5032995;28;20494;-69
2022/08/18 06:44:28;;;;;;;14.43;9.48;;;;;;;;;;5033215;28;20448;-69
2022/08/18 06:46:58;;;;;;;17.27;8.98;;;;;;;;;;5032708;28;20056;-68
2022/08/18 06:49:27;;;;;;;14.95;8.52;;;;;;;;;;5019623;28;20045;-69
2022/08/18 06:51:54;;;;;;;12.55;8.55;;;;;;;;;;5032147;28;20694;-68
2022/08/18 06:54:20;;;;;;;13.40;9.00;;;;;;;;;;5019089;28;20045;-69
2022/08/18 06:56:48;;;;;;;12.93;8.52;;;;;;;;;;5030625;28;20050;-69
2022/08/18 06:59:20;;;;;;;12.00;8.15;;;;;;;;;;5028840;28;20054;-69
2022/08/18 07:01:49;;;;;;;10.32;8.05;;;;;;;;;;5032497;28;20080;-69
2022/08/18 07:04:29;;;;;;;15.20;8.43;;;;;;;;;;5031931;28;20049;-69
2022/08/18 07:06:55;;;;;;;11.77;8.07;;;;;;;;;;5030272;28;20468;-70
2022/08/18 07:09:23;;;;;;;13.02;8.02;;;;;;;;;;5031967;28;20077;-69
2022/08/18 07:12:01;;;;;;;11.90;8.63;;;;;;;;;;5031990;28;20045;-69
2022/08/18 07:14:28;;;;;;;12.85;8.80;;;;;;;;;;5031728;28;20046;-69
2022/08/18 07:17:09;;;;;;;15.50;9.40;;;;;;;;;;5030214;28;20235;-70
2022/08/18 07:19:36;;;;;;;10.80;8.45;;;;;;;;;;5031776;28;20452;-69
2022/08/18 07:22:05;;;;;;;13.85;8.85;;;;;;;;;;5031899;28;20041;-69
2022/08/18 07:24:38;;;;;;;13.48;10.00;;;;;;;;;;5031923;28;20387;-70
2022/08/18 07:27:14;;;;;;;11.10;9.30;;;;;;;;;;5031547;28;20409;-69
2022/08/18 07:29:58;;;;;;;14.35;9.48;;;;;;;;;;5031832;28;20049;-69
2022/08/18 07:32:45;;;;;;;14.70;9.52;;;;;;;;;;5031785;28;20118;-69
2022/08/18 07:35:13;;;;;;;13.25;9.73;;;;;;;;;;5031322;28;20571;-69
2022/08/18 07:37:43;;;;;;;13.02;8.80;;;;;;;;;;5030964;28;20045;-68
2022/08/18 07:40:18;;;;;;;12.50;8.88;;;;;;;;;;5031462;28;20371;-68
2022/08/18 07:42:57;;;;;;;10.05;8.02;;;;;;;;;;5019509;28;20128;-69
2022/08/18 07:45:30;;;;;;;9.35;7.88;;;;;;;;;;5028737;28;20057;-68
2022/08/18 07:48:17;;;;;;;8.75;6.88;;;;;;;;;;5030538;28;20057;-68
2022/08/18 07:51:03;;;;;;;;;;;;;;;;;;5019600;28;20052;-68
2022/08/18 07:53:42;;;;;;;8.07;7.38;;;;;;;;;;5030527;28;19990;-69
2022/08/18 07:56:23;;;;;;;9.70;6.90;;;;;;;;;;5031584;28;20132;-69
2022/08/18 07:58:57;;;;;;;10.60;7.38;;;;;;;;;;5031877;28;20049;-69
2022/08/18 08:01:30;;;;;;;8.82;6.53;;;;;;;;;;5031857;28;20073;-69
2022/08/18 08:04:01;;;;;;;8.85;6.20;;;;;;;;;;5031735;28;20448;-69
2022/08/18 08:06:40;;;;;;;9.88;6.78;;;;;;;;;;5031628;28;20485;-69
2022/08/18 08:09:25;;;;;;;7.10;6.38;;;;;;;;;;5031521;28;20085;-69
2022/08/18 08:11:57;;;;;;;9.80;7.65;;;;;;;;;;5031469;28;20049;-69
2022/08/18 08:14:24;;;;;;;8.20;7.05;;;;;;;;;;5031655;28;20053;-69
2022/08/18 08:16:52;;;;;;;7.53;6.75;;;;;;;;;;5031814;28;20049;-69
2022/08/18 08:19:37;;;;;;;8.60;6.97;;;;;;;;;;5031478;28;20073;-69
2022/08/18 08:22:35;;;;;;;8.85;7.45;;;;;;;;;;5031512;28;20140;-69
2022/08/18 08:25:19;;;;;;;9.90;7.55;;;;;;;;;;5031434;28;20056;-69
2022/08/18 08:28:15;;;;;;;7.75;6.95;;;;;;;;;;5031601;28;20478;-70
2022/08/18 08:31:05;;;;;;;9.40;7.90;;;;;;;;;;5031424;28;20053;-70
2022/08/18 08:34:04;;;;;;;8.82;7.65;;;;;;;;;;5030810;28;20140;-70
2022/08/18 08:36:34;;;;;;;9.85;8.18;;;;;;;;;;5031443;28;20050;-70
2022/08/18 08:39:08;;;;;;;7.88;6.95;;;;;;;;;;5031536;28;20482;-70
2022/08/18 08:41:45;;;;;;;8.07;7.10;;;;;;;;;;5031424;28;20557;-70
2022/08/18 08:44:20;;;;;;;8.43;6.43;;;;;;;;;;5031295;28;20085;-70
2022/08/18 08:47:01;;;;;;;8.55;7.28;;;;;;;;;;5031287;28;20053;-70
2022/08/18 08:49:32;;;;;;;8.85;7.70;;;;;;;;;;5032888;28;20490;-70
2022/08/18 08:52:31;;;;;;;7.88;6.30;;;;;;;;;;5035279;28;20053;-70
2022/08/18 08:55:06;;;;;;;7.22;6.63;;;;;;;;;;5033251;28;20092;-70
2022/08/18 08:57:37;;;;;;;9.88;6.60;;;;;;;;;;5035111;28;20180;-69
2022/08/18 09:00:06;;;;;;;7.97;7.15;;;;;;;;;;5035168;28;20045;-70
2022/08/18 09:02:57;;;;;;;7.22;6.53;;;;;;;;;;5035009;28;20072;-70
2022/08/18 09:05:23;;;;;;;7.22;6.53;;;;;;;;;;5034868;28;20132;-70
2022/08/18 09:08:05;;;;;;;7.20;6.38;;;;;;;;;;5034979;28;20054;-70
2022/08/18 09:10:50;;;;;;;7.68;6.38;;;;;;;;;;5034698;28;20494;-70
2022/08/18 09:13:29;;;;;;;6.20;5.60;;;;;;;;;;5034691;28;20069;-70
2022/08/18 09:15:56;;;;;;;5.75;4.82;;;;;;;;;;5034614;28;20089;-70
2022/08/18 09:18:25;;;;;;;5.78;5.18;;;;;;;;;;5034525;28;20072;-70
2022/08/18 09:20:54;;;;;;;6.13;5.63;;;;;;;;;;5034676;28;20458;-70
2022/08/18 09:23:23;;;;;;;5.90;5.45;;;;;;;;;;5034527;28;20046;-70
2022/08/18 09:25:52;;;;;;;6.10;5.38;;;;;;;;;;5034469;28;20432;-70
2022/08/18 09:28:38;;;;;;;5.85;5.13;;;;;;;;;;5034576;28;20453;-70
2022/08/18 09:31:04;;;;;;;6.65;5.10;;;;;;;;;;5034336;28;20092;-70
2022/08/18 09:33:39;;;;;;;6.78;5.35;;;;;;;;;;5034218;28;20092;-70
2022/08/18 09:36:06;;;;;;;5.75;4.68;;;;;;;;;;5034309;28;20049;-70
2022/08/18 09:41:30;;;;;;;5.55;4.50;;;;;;;;;;5034174;28;20085;-69
2022/08/18 09:44:08;;;;;;;5.28;4.35;;;;;;;;;;5034413;28;20101;-70
2022/08/18 09:46:52;;;;;;;4.47;4.13;;;;;;;;;;5030398;28;20112;-70
2022/08/18 09:49:22;;;;;;;5.50;4.53;;;;;;;;;;5033799;28;20057;-70
2022/08/18 09:51:49;;;;;;;5.55;4.38;;;;;;;;;;5032711;28;20104;-69
2022/08/18 09:54:19;;;;;;;4.78;4.30;;;;;;;;;;5032947;28;20045;-69
2022/08/18 09:56:49;;;;;;;4.35;3.95;;;;;;;;;;5034070;28;20406;-69
2022/08/18 09:59:32;;;;;;;3.70;2.90;;;;;;;;;;5033752;28;20494;-69
2022/08/18 10:02:02;;;;;;;4.05;3.20;;;;;;;;;;5033669;28;20046;-70
2022/08/18 10:04:33;;;;;;;3.55;3.25;;;;;;;;;;5033958;28;20401;-70
2022/08/18 10:07:13;;;;;;;2.90;2.65;;;;;;;;;;5033656;28;20497;-70
2022/08/18 10:09:40;;;;;;;2.35;2.17;;;;;;;;;;5032362;28;20099;-70
2022/08/18 10:12:25;;;;;;;3.33;3.03;;;;;;;;;;5032617;28;20053;-70
2022/08/18 10:14:59;;;;;;;3.30;2.42;;;;;;;;;;5033487;28;20053;-70
2022/08/18 10:17:44;;;;;;;2.40;2.20;;;;;;;;;;5033719;28;20131;-70
2022/08/18 10:20:18;;;;;;;2.92;2.72;;;;;;;;;;5033742;28;20056;-70
2022/08/18 10:22:53;;;;;;;3.40;2.92;;;;;;;;;;5033535;28;20128;-69
2022/08/18 10:25:32;;;;;;;3.05;2.75;;;;;;;;;;5033565;28;20048;-70
2022/08/18 10:27:58;;;;;;;3.85;3.00;;;;;;;;;;5033328;28;20053;-70
2022/08/18 10:30:25;;;;;;;;;;;;;;;;;;5033694;28;20099;-70
2022/08/18 10:32:53;;;;;;;3.65;3.33;;;;;;;;;;5033160;28;19932;-69
2022/08/18 10:35:32;;;;;;;4.85;3.70;;;;;;;;;;5032968;28;20551;-70
2022/08/18 10:38:00;;;;;;;4.30;3.90;;;;;;;;;;5033430;28;20048;-69
2022/08/18 10:40:26;;;;;;;5.13;3.58;;;;;;;;;;5033005;28;20535;-69
2022/08/18 10:43:10;;;;;;;3.65;3.35;;;;;;;;;;5033005;28;20486;-69
2022/08/18 10:45:56;;;;;;;4.05;3.60;;;;;;;;;;5033077;28;20133;-69
2022/08/18 10:48:43;;;;;;;4.28;3.40;;;;;;;;;;5032820;28;20084;-69
2022/08/18 10:51:10;;;;;;;;;;;;;;;;;;5032307;28;20089;-69
2022/08/18 10:53:44;;;;;;;4.60;4.20;;;;;;;;;;5032629;28;20002;-69
2022/08/18 10:56:18;;;;;;;5.35;4.80;;;;;;;;;;5032648;28;20560;-69
2022/08/18 10:58:52;;;;;;;5.38;4.88;;;;;;;;;;5032945;28;20137;-69
2022/08/18 11:01:33;;;;;;;5.40;4.95;;;;;;;;;;5032883;28;20092;-69
2022/08/18 11:04:10;;;;;;;5.25;4.50;;;;;;;;;;5032776;28;20125;-69
2022/08/18 11:07:21;;;;;;;5.18;4.70;;;;;;;;;;5032950;28;20075;-69
2022/08/18 11:09:49;;;;;;;5.28;4.78;;;;;;;;;;5031971;28;20049;-69
2022/08/18 11:12:53;;;;;;;6.80;6.10;;;;;;;;;;5031969;28;20468;-69
2022/08/18 11:15:27;;;;;;;5.50;5.00;;;;;;;;;;5028001;28;20152;-69
2022/08/18 11:18:03;;;;;;;4.95;4.55;;;;;;;;;;5032630;28;20050;-69
2022/08/18 11:20:38;;;;;;;6.70;4.43;;;;;;;;;;5032504;28;20045;-69
2022/08/18 11:23:12;;;;;;;5.22;4.30;;;;;;;;;;5032439;28;20086;-69
2022/08/18 11:25:40;;;;;;;5.80;5.18;;;;;;;;;;5032544;28;20049;-69
2022/08/18 11:28:14;;;;;;;4.88;4.47;;;;;;;;;;5032275;28;20049;-69
2022/08/18 11:30:45;;;;;;;3.63;3.33;;;;;;;;;;5032315;28;20515;-69
2022/08/18 11:33:14;;;;;;;4.03;3.60;;;;;;;;;;5031972;28;20053;-69
2022/08/18 11:35:50;;;;;;;3.60;3.20;;;;;;;;;;5032031;28;20060;-69
2022/08/18 11:38:18;;;;;;;4.05;3.75;;;;;;;;;;5031932;28;20085;-69
2022/08/18 11:40:51;;;;;;;4.70;4.18;;;;;;;;;;5032053;28;20053;-69
2022/08/18 11:43:39;;;;;;;4.45;3.58;;;;;;;;;;5031797;28;20051;-69
2022/08/18 11:46:20;;;;;;;4.65;3.78;;;;;;;;;;5031926;28;20076;-70
2022/08/18 11:49:17;;;;;;;3.63;3.33;;;;;;;;;;5031792;28;20553;-70
2022/08/18 11:52:02;;;;;;;3.58;3.28;;;;;;;;;;5031680;28;20050;-70
2022/08/18 11:54:34;;;;;;;3.90;3.60;;;;;;;;;;5032139;28;20060;-69
2022/08/18 11:57:21;;;;;;;4.43;4.03;;;;;;;;;;5031283;28;20056;-69
2022/08/18 11:59:49;;;;;;;3.90;3.55;;;;;;;;;;5031789;28;20061;-77
2022/08/18 12:02:25;;;;;;;4.43;3.42;;;;;;;;;;5030984;28;20049;-76
2022/08/18 12:04:55;;;;;;;6.40;3.80;;;;;;;;;;5031149;28;20477;-77
2022/08/18 12:07:30;;;;;;;3.50;3.15;;;;;;;;;;5030771;28;20057;-78
2022/08/18 12:10:18;;;;;;;3.85;3.53;;;;;;;;;;5028740;28;20053;-76
2022/08/18 12:12:48;;;;;;;3.03;2.78;;;;;;;;;;5030735;28;20049;-77
2022/08/18 12:15:17;;;;;;;3.10;2.80;;;;;;;;;;5030890;28;20069;-77
2022/08/18 12:17:50;;;;;;;3.17;2.83;;;;;;;;;;5031012;28;20045;-76
2022/08/18 12:20:37;;;;;;;3.08;2.67;;;;;;;;;;5030607;28;20077;-76
2022/08/18 12:23:04;;;;;;;2.80;2.60;;;;;;;;;;5029080;28;20507;-77
2022/08/18 12:25:31;;;;;;;4.50;3.47;;;;;;;;;;5034814;28;20038;-76
2022/08/18 12:27:57;;;;;;;4.38;3.45;;;;;;;;;;5033154;28;20099;-76
2022/08/18 12:30:24;;;;;;;6.85;3.17;;;;;;;;;;5034872;28;20505;-78
2022/08/18 12:32:51;;;;;;;3.60;2.85;;;;;;;;;;5034518;28;20057;-77
2022/08/18 12:35:31;;;;;;;3.30;3.00;;;;;;;;;;5034517;28;20059;-76
2022/08/18 12:38:00;;;;;;;3.35;2.80;;;;;;;;;;5034719;28;20058;-78
2022/08/18 12:40:39;;;;;;;3.00;2.80;;;;;;;;;;5034953;28;20103;-78
2022/08/18 12:43:05;;;;;;;2.90;2.70;;;;;;;;;;5034808;28;20037;-76
2022/08/18 12:45:32;;;;;;;3.72;2.78;;;;;;;;;;5034590;28;20057;-73
2022/08/18 12:48:01;;;;;;;3.40;3.10;;;;;;;;;;5033547;28;20060;-72
2022/08/18 12:50:29;;;;;;;4.93;3.00;;;;;;;;;;5034642;28;20054;-74
2022/08/18 12:53:03;;;;;;;3.20;2.97;;;;;;;;;;5033473;28;20119;-74
2022/08/18 12:55:32;;;;;;;2.47;2.30;;;;;;;;;;5034511;28;20623;-74
2022/08/18 12:58:00;;;;;;;4.80;2.70;;;;;;;;;;5034641;28;20169;-75
2022/08/18 13:00:26;;;;;;;2.85;2.65;;;;;;;;;;5034540;28;20127;-74
2022/08/18 13:02:55;;;;;;;2.28;2.17;;;;;;;;;;5034531;28;20449;-78
2022/08/18 13:05:22;;;;;;;4.32;2.25;;;;;;;;;;5034495;28;20072;-73
2022/08/18 13:08:03;;;;;;;4.57;1.90;;;;;;;;;;5034444;28;20049;-71
2022/08/18 13:10:31;;;;;;;3.95;1.90;;;;;;;;;;5032440;28;20063;-77
2022/08/18 13:13:12;;;;;;;2.53;1.92;;;;;;;;;;5033300;28;20057;-76
2022/08/18 13:15:39;;;;;;;2.40;2.20;;;;;;;;;;5034019;28;20061;-75
2022/08/18 13:18:24;;;;;;;2.58;1.80;;;;;;;;;;5034376;28;20120;-74
2022/08/18 13:20:56;;;;;;;2.90;2.05;;;;;;;;;;5034394;28;20394;-74
2022/08/18 13:23:24;;;;;;;2.15;2.05;;;;;;;;;;5034158;28;20049;-75
2022/08/18 13:25:51;;;;;;;2.17;1.98;;;;;;;;;;5032527;28;20065;-77
2022/08/18 13:28:28;;;;;;;2.28;2.03;;;;;;;;;;5031032;28;20049;-77
2022/08/18 13:30:56;;;;;;;1.83;1.70;;;;;;;;;;5023186;28;20045;-77
2022/08/18 13:33:23;;;;;;;2.08;1.83;;;;;;;;;;5033118;28;20481;-78
2022/08/18 13:36:10;;;;;;;2.28;1.70;;;;;;;;;;5031044;28;20132;-78
2022/08/18 13:38:39;;;;;;;2.70;1.60;;;;;;;;;;5031870;28;20128;-78
2022/08/18 13:41:10;;;;;;;2.10;1.92;;;;;;;;;;5034209;28;20045;-77
2022/08/18 13:43:42;;;;;;;4.50;1.90;;;;;;;;;;5034425;28;20045;-78
2022/08/18 13:46:10;;;;;;;1.58;1.48;;;;;;;;;;5034331;28;20081;-78
2022/08/18 13:48:38;;;;;;;1.73;1.63;;;;;;;;;;5034169;28;20053;-78
2022/08/18 13:51:08;;;;;;;1.60;1.50;;;;;;;;;;5034249;28;20053;-77
2022/08/18 13:53:35;;;;;;;1.70;1.60;;;;;;;;;;5032934;28;20470;-78
2022/08/18 13:56:18;;;;;;;2.47;1.92;;;;;;;;;;5033932;28;20049;-79
2022/08/18 13:58:44;;;;;;;1.92;1.50;;;;;;;;;;5034085;28;20129;-77
2022/08/18 14:01:19;;;;;;;1.65;1.55;;;;;;;;;;5034088;28;20053;-78
2022/08/18 14:04:06;;;;;;;2.88;1.80;;;;;;;;;;5032634;28;20494;-78
2022/08/18 14:06:38;;;;;;;2.40;2.20;;;;;;;;;;5033759;28;20053;-78
2022/08/18 14:09:12;;;;;;;2.50;1.60;;;;;;;;;;5033299;28;20057;-79
2022/08/18 14:11:46;;;;;;;2.08;1.45;;;;;;;;;;5033724;28;20129;-78
2022/08/18 14:14:16;;;;;;;1.65;1.38;;;;;;;;;;5031238;28;20050;-78
2022/08/18 14:16:43;;;;;;;;;;;;;;;;;;5033152;28;20060;-77
2022/08/18 14:27:33;;;;;;;1.73;1.63;;;;;;;;;;5032947;28;20053;-78
2022/08/18 14:30:02;;;;;;;1.95;1.50;;;;;;;;;;5033002;28;20507;-78
2022/08/18 14:32:29;;;;;;;1.95;1.20;;;;;;;;;;5032751;28;20100;-76
2022/08/18 14:35:02;;;;;;;1.52;1.20;;;;;;;;;;5032902;28;20137;-77
2022/08/18 14:37:49;;;;;;;1.88;1.30;;;;;;;;;;5031536;28;20056;-78
2022/08/18 14:40:16;;;;;;;1.35;1.25;;;;;;;;;;5017298;28;20052;-72
2022/08/18 14:42:42;;;;;;;1.30;1.20;;;;;;;;;;5032697;28;20055;-72
2022/08/18 14:45:20;;;;;;;1.65;1.35;;;;;;;;;;5032643;28;20126;-72
2022/08/18 14:48:00;;;;;;;1.10;0.98;;;;;;;;;;5031405;28;20673;-72
2022/08/18 14:50:29;;;;;;;2.00;1.50;;;;;;;;;;5032521;28;20045;-71
2022/08/18 14:52:56;;;;;;;2.13;1.42;;;;;;;;;;5032317;28;20057;-73
2022/08/18 14:55:24;;;;;;;1.95;1.27;;;;;;;;;;5030104;28;20049;-73
2022/08/18 14:57:52;;;;;;;1.85;1.30;;;;;;;;;;5032166;28;20152;-73
2022/08/18 15:00:19;;;;;;;1.50;1.40;;;;;;;;;;5032466;28;20136;-72
2022/08/18 15:02:48;;;;;;;1.65;1.55;;;;;;;;;;5032486;28;20490;-72
2022/08/18 15:05:15;;;;;;;1.70;1.38;;;;;;;;;;5030997;28;20057;-72
2022/08/18 15:07:50;;;;;;;1.52;1.30;;;;;;;;;;5032076;28;20055;-73
2022/08/18 15:10:16;;;;;;;1.63;1.25;;;;;;;;;;5032383;28;20093;-73
2022/08/18 15:12:48;;;;;;;1.55;1.40;;;;;;;;;;5032151;28;20061;-73
2022/08/18 15:15:15;;;;;;;1.77;1.50;;;;;;;;;;5031731;28;20547;-72
2022/08/18 15:17:43;;;;;;;4.60;1.40;;;;;;;;;;5031566;28;20049;-72
2022/08/18 15:20:16;;;;;;;2.00;1.30;;;;;;;;;;5030829;28;20045;-72
2022/08/18 15:25:41;;;;;;;1.50;1.10;;;;;;;;;;5031880;28;20099;-73
2022/08/18 15:28:08;;;;;;;2.58;1.50;;;;;;;;;;5031745;28;20175;-73
2022/08/18 15:30:45;;;;;;;2.05;1.50;;;;;;;;;;5031366;28;20053;-74
2022/08/18 15:33:17;;;;;;;1.95;1.20;;;;;;;;;;5031777;28;20382;-72
2022/08/18 15:35:52;;;;;;;1.55;1.13;;;;;;;;;;5031941;28;20050;-73